sensor_id;sensor_type;location;lat;lon;timestamp;temperature;humidity
2497;DHT22;1259;48.306;14.374;2023-04-25T00:01:15;7.00;99.90
2497;DHT22;1259;48.306;14.374;2023-04-25T00:03:42;7.00;99.90
2497;DHT22;1259;48.306;14.374;2023-04-25T00:06:08;7.00;99.90
2497;DHT22;1259;48.306;14.374;2023-04-25T00:08:35;6.90;99.90
2497;DHT22;1259;48.306;14.374;2023-04-25T00:11:03;6.90;99.90
2497;DHT22;1259;48.306;14.374;2023-04-25T00:13:30;6.90;99.90
2497;DHT22;1259;48.306;14.374;2023-04-25T00:15:57;6.90;99.90
2497;DHT22;1259;48.306;14.374;2023-04-25T00:18:25;6.90;99.90
2497;DHT22;1259;48.306;14.374;2023-04-25T00:20:54;6.90;99.90
2497;DHT22;1259;48.306;14.374;2023-04-25T00:23:21;6.80;99.90
2497;DHT22;1259;48.306;14.374;2023-04-25T00:25:48;6.80;99.90
2497;DHT22;1259;48.306;14.374;2023-04-25T00:28:16;6.70;99.90
2497;DHT22;1259;48.306;14.374;2023-04-25T00:30:43;6.70;99.90
2497;DHT22;1259;48.306;14.374;2023-04-25T00:33:10;6.70;99.90
2497;DHT22;1259;48.306;14.374;2023-04-25T00:35:36;6.70;99.90
2497;DHT22;1259;48.306;14.374;2023-04-25T00:38:03;6.70;99.90
2497;DHT22;1259;48.306;14.374;2023-04-25T00:40:30;6.60;99.90
2497;DHT22;1259;48.306;14.374;2023-04-25T00:42:56;6.60;99.90
2497;DHT22;1259;48.306;14.374;2023-04-25T00:45:26;6.60;99.90
2497;DHT22;1259;48.306;14.374;2023-04-25T00:47:53;6.60;99.90
2497;DHT22;1259;48.306;14.374;2023-04-25T00:50:20;6.50;99.90
2497;DHT22;1259;48.306;14.374;2023-04-25T00:52:47;6.50;99.90
2497;DHT22;1259;48.306;14.374;2023-04-25T00:55:14;6.50;99.90
2497;DHT22;1259;48.306;14.374;2023-04-25T00:57:41;6.40;99.90
2497;DHT22;1259;48.306;14.374;2023-04-25T01:00:08;6.40;99.90
2497;DHT22;1259;48.306;14.374;2023-04-25T01:02:37;6.40;99.90
2497;DHT22;1259;48.306;14.374;2023-04-25T01:05:04;6.40;99.90
2497;DHT22;1259;48.306;14.374;2023-04-25T01:07:31;6.30;99.90
2497;DHT22;1259;48.306;14.374;2023-04-25T01:09:57;6.30;99.90
2497;DHT22;1259;48.306;14.374;2023-04-25T01:12:24;6.30;99.90
2497;DHT22;1259;48.306;14.374;2023-04-25T01:14:51;6.30;99.90
2497;DHT22;1259;48.306;14.374;2023-04-25T01:17:18;6.20;99.90
2497;DHT22;1259;48.306;14.374;2023-04-25T01:19:46;6.20;99.90
2497;DHT22;1259;48.306;14.374;2023-04-25T01:22:15;6.20;99.90
2497;DHT22;1259;48.306;14.374;2023-04-25T01:24:42;6.20;99.90
2497;DHT22;1259;48.306;14.374;2023-04-25T01:27:09;6.20;99.90
2497;DHT22;1259;48.306;14.374;2023-04-25T01:29:36;6.20;99.90
2497;DHT22;1259;48.306;14.374;2023-04-25T01:32:03;6.20;99.90
2497;DHT22;1259;48.306;14.374;2023-04-25T01:34:30;6.20;99.90
2497;DHT22;1259;48.306;14.374;2023-04-25T01:36:57;6.20;99.90
2497;DHT22;1259;48.306;14.374;2023-04-25T01:39:27;6.30;99.90
2497;DHT22;1259;48.306;14.374;2023-04-25T01:41:54;6.30;99.90
2497;DHT22;1259;48.306;14.374;2023-04-25T01:44:20;6.30;99.90
2497;DHT22;1259;48.306;14.374;2023-04-25T01:46:47;6.30;99.90
2497;DHT22;1259;48.306;14.374;2023-04-25T01:49:14;6.30;99.90
2497;DHT22;1259;48.306;14.374;2023-04-25T01:51:40;6.30;99.90
2497;DHT22;1259;48.306;14.374;2023-04-25T01:54:07;6.20;99.90
2497;DHT22;1259;48.306;14.374;2023-04-25T01:56:37;6.20;99.90
2497;DHT22;1259;48.306;14.374;2023-04-25T01:59:04;6.20;99.90
2497;DHT22;1259;48.306;14.374;2023-04-25T02:01:31;6.20;99.90
2497;DHT22;1259;48.306;14.374;2023-04-25T02:03:58;6.20;99.90
2497;DHT22;1259;48.306;14.374;2023-04-25T02:06:24;6.30;99.90
2497;DHT22;1259;48.306;14.374;2023-04-25T02:08:51;6.30;99.90
2497;DHT22;1259;48.306;14.374;2023-04-25T02:11:18;6.30;99.90
2497;DHT22;1259;48.306;14.374;2023-04-25T02:13:46;6.30;99.90
2497;DHT22;1259;48.306;14.374;2023-04-25T02:16:12;6.40;99.90
2497;DHT22;1259;48.306;14.374;2023-04-25T02:18:39;6.40;99.90
2497;DHT22;1259;48.306;14.374;2023-04-25T02:21:06;6.40;99.90
2497;DHT22;1259;48.306;14.374;2023-04-25T02:23:32;6.40;99.90
2497;DHT22;1259;48.306;14.374;2023-04-25T02:25:59;6.40;99.90
2497;DHT22;1259;48.306;14.374;2023-04-25T02:28:26;6.50;99.90
2497;DHT22;1259;48.306;14.374;2023-04-25T02:30:54;6.50;99.90
2497;DHT22;1259;48.306;14.374;2023-04-25T02:33:21;6.50;99.90
2497;DHT22;1259;48.306;14.374;2023-04-25T02:35:48;6.50;99.90
2497;DHT22;1259;48.306;14.374;2023-04-25T02:38:14;6.40;99.90
2497;DHT22;1259;48.306;14.374;2023-04-25T02:40:41;6.40;99.90
2497;DHT22;1259;48.306;14.374;2023-04-25T02:43:08;6.40;99.90
2497;DHT22;1259;48.306;14.374;2023-04-25T02:45:34;6.40;99.90
2497;DHT22;1259;48.306;14.374;2023-04-25T02:48:03;6.40;99.90
2497;DHT22;1259;48.306;14.374;2023-04-25T02:50:30;6.40;99.90
2497;DHT22;1259;48.306;14.374;2023-04-25T02:52:56;6.30;99.90
2497;DHT22;1259;48.306;14.374;2023-04-25T02:55:23;6.30;99.90
2497;DHT22;1259;48.306;14.374;2023-04-25T02:57:50;6.30;99.90
2497;DHT22;1259;48.306;14.374;2023-04-25T03:00:16;6.20;99.90
2497;DHT22;1259;48.306;14.374;2023-04-25T03:02:43;6.20;99.90
2497;DHT22;1259;48.306;14.374;2023-04-25T03:05:11;6.10;99.90
2497;DHT22;1259;48.306;14.374;2023-04-25T03:07:38;6.10;99.90
2497;DHT22;1259;48.306;14.374;2023-04-25T03:10:06;6.10;99.90
2497;DHT22;1259;48.306;14.374;2023-04-25T03:12:32;6.10;99.90
2497;DHT22;1259;48.306;14.374;2023-04-25T03:14:59;6.10;99.90
2497;DHT22;1259;48.306;14.374;2023-04-25T03:17:26;6.10;99.90
2497;DHT22;1259;48.306;14.374;2023-04-25T03:19:52;6.10;99.90
2497;DHT22;1259;48.306;14.374;2023-04-25T03:22:20;6.10;99.90
2497;DHT22;1259;48.306;14.374;2023-04-25T03:24:47;6.10;99.90
2497;DHT22;1259;48.306;14.374;2023-04-25T03:27:14;6.10;99.90
2497;DHT22;1259;48.306;14.374;2023-04-25T03:29:41;6.10;99.90
2497;DHT22;1259;48.306;14.374;2023-04-25T03:32:09;6.00;99.90
2497;DHT22;1259;48.306;14.374;2023-04-25T03:34:36;6.00;99.90
2497;DHT22;1259;48.306;14.374;2023-04-25T03:37:02;6.10;99.90
2497;DHT22;1259;48.306;14.374;2023-04-25T03:39:30;6.00;99.90
2497;DHT22;1259;48.306;14.374;2023-04-25T03:41:57;6.00;99.90
2497;DHT22;1259;48.306;14.374;2023-04-25T03:44:24;6.00;99.90
2497;DHT22;1259;48.306;14.374;2023-04-25T03:46:50;6.00;99.90
2497;DHT22;1259;48.306;14.374;2023-04-25T03:49:17;6.00;99.90
2497;DHT22;1259;48.306;14.374;2023-04-25T03:51:44;6.00;99.90
2497;DHT22;1259;48.306;14.374;2023-04-25T03:54:10;6.00;99.90
2497;DHT22;1259;48.306;14.374;2023-04-25T03:56:38;6.00;99.90
2497;DHT22;1259;48.306;14.374;2023-04-25T03:59:05;5.90;99.90
2497;DHT22;1259;48.306;14.374;2023-04-25T04:01:32;5.90;99.90
2497;DHT22;1259;48.306;14.374;2023-04-25T04:03:59;5.90;99.90
2497;DHT22;1259;48.306;14.374;2023-04-25T04:06:26;5.90;99.90
2497;DHT22;1259;48.306;14.374;2023-04-25T04:08:52;5.90;99.90
2497;DHT22;1259;48.306;14.374;2023-04-25T04:11:19;6.00;99.90
2497;DHT22;1259;48.306;14.374;2023-04-25T04:13:47;6.00;99.90
2497;DHT22;1259;48.306;14.374;2023-04-25T04:16:14;6.00;99.90
2497;DHT22;1259;48.306;14.374;2023-04-25T04:18:40;6.00;99.90
2497;DHT22;1259;48.306;14.374;2023-04-25T04:21:07;6.10;99.90
2497;DHT22;1259;48.306;14.374;2023-04-25T04:23:34;6.10;99.90
2497;DHT22;1259;48.306;14.374;2023-04-25T04:26:01;6.10;99.90
2497;DHT22;1259;48.306;14.374;2023-04-25T04:28:28;6.20;99.90
2497;DHT22;1259;48.306;14.374;2023-04-25T04:30:56;6.20;99.90
2497;DHT22;1259;48.306;14.374;2023-04-25T04:33:23;6.30;99.90
2497;DHT22;1259;48.306;14.374;2023-04-25T04:35:50;6.40;99.90
2497;DHT22;1259;48.306;14.374;2023-04-25T04:38:17;6.40;99.90
2497;DHT22;1259;48.306;14.374;2023-04-25T04:40:45;6.40;99.90
2497;DHT22;1259;48.306;14.374;2023-04-25T04:43:13;6.50;99.90
2497;DHT22;1259;48.306;14.374;2023-04-25T04:45:40;6.60;99.90
2497;DHT22;1259;48.306;14.374;2023-04-25T04:48:08;6.60;99.90
2497;DHT22;1259;48.306;14.374;2023-04-25T04:50:37;6.60;99.90
2497;DHT22;1259;48.306;14.374;2023-04-25T04:53:04;6.70;99.90
2497;DHT22;1259;48.306;14.374;2023-04-25T04:55:31;6.80;99.90
2497;DHT22;1259;48.306;14.374;2023-04-25T04:57:57;6.80;99.90
2497;DHT22;1259;48.306;14.374;2023-04-25T05:00:24;6.90;99.90
2497;DHT22;1259;48.306;14.374;2023-04-25T05:02:51;6.90;99.90
2497;DHT22;1259;48.306;14.374;2023-04-25T05:05:19;7.00;99.90
2497;DHT22;1259;48.306;14.374;2023-04-25T05:07:46;7.00;99.90
2497;DHT22;1259;48.306;14.374;2023-04-25T05:10:12;7.00;99.90
2497;DHT22;1259;48.306;14.374;2023-04-25T05:12:39;7.00;99.90
2497;DHT22;1259;48.306;14.374;2023-04-25T05:15:06;7.10;99.90
2497;DHT22;1259;48.306;14.374;2023-04-25T05:17:33;7.20;99.90
2497;DHT22;1259;48.306;14.374;2023-04-25T05:20:00;7.30;99.90
2497;DHT22;1259;48.306;14.374;2023-04-25T05:22:28;7.40;99.90
2497;DHT22;1259;48.306;14.374;2023-04-25T05:24:55;7.60;99.90
2497;DHT22;1259;48.306;14.374;2023-04-25T05:27:21;7.70;99.90
2497;DHT22;1259;48.306;14.374;2023-04-25T05:29:49;7.80;99.90
2497;DHT22;1259;48.306;14.374;2023-04-25T05:32:17;7.70;99.90
2497;DHT22;1259;48.306;14.374;2023-04-25T05:34:43;7.70;99.90
2497;DHT22;1259;48.306;14.374;2023-04-25T05:37:10;7.80;99.90
2497;DHT22;1259;48.306;14.374;2023-04-25T05:39:38;8.00;99.90
2497;DHT22;1259;48.306;14.374;2023-04-25T05:42:05;8.00;99.90
2497;DHT22;1259;48.306;14.374;2023-04-25T05:44:32;8.10;99.90
2497;DHT22;1259;48.306;14.374;2023-04-25T05:46:58;8.20;99.90
2497;DHT22;1259;48.306;14.374;2023-04-25T05:49:25;8.40;99.90
2497;DHT22;1259;48.306;14.374;2023-04-25T05:51:52;8.50;99.90
2497;DHT22;1259;48.306;14.374;2023-04-25T05:54:19;8.50;99.90
2497;DHT22;1259;48.306;14.374;2023-04-25T05:56:47;8.60;99.90
2497;DHT22;1259;48.306;14.374;2023-04-25T05:59:13;8.60;99.90
2497;DHT22;1259;48.306;14.374;2023-04-25T06:01:40;8.70;99.90
2497;DHT22;1259;48.306;14.374;2023-04-25T06:04:07;8.60;99.90
2497;DHT22;1259;48.306;14.374;2023-04-25T06:06:33;8.60;99.90
2497;DHT22;1259;48.306;14.374;2023-04-25T06:09:00;8.60;99.90
2497;DHT22;1259;48.306;14.374;2023-04-25T06:11:27;8.60;99.90
2497;DHT22;1259;48.306;14.374;2023-04-25T06:13:55;8.80;99.90
2497;DHT22;1259;48.306;14.374;2023-04-25T06:16:21;8.80;99.90
2497;DHT22;1259;48.306;14.374;2023-04-25T06:18:51;8.80;99.90
2497;DHT22;1259;48.306;14.374;2023-04-25T06:21:17;8.80;99.90
2497;DHT22;1259;48.306;14.374;2023-04-25T06:23:44;8.80;99.90
2497;DHT22;1259;48.306;14.374;2023-04-25T06:26:11;8.70;99.90
2497;DHT22;1259;48.306;14.374;2023-04-25T06:28:37;8.70;99.90
2497;DHT22;1259;48.306;14.374;2023-04-25T06:31:05;8.60;99.90
2497;DHT22;1259;48.306;14.374;2023-04-25T06:33:32;8.60;99.90
2497;DHT22;1259;48.306;14.374;2023-04-25T06:35:59;8.70;99.90
2497;DHT22;1259;48.306;14.374;2023-04-25T06:38:25;8.80;99.90
2497;DHT22;1259;48.306;14.374;2023-04-25T06:40:52;9.00;99.90
2497;DHT22;1259;48.306;14.374;2023-04-25T06:43:19;9.30;99.90
2497;DHT22;1259;48.306;14.374;2023-04-25T06:45:45;9.40;99.90
2497;DHT22;1259;48.306;14.374;2023-04-25T06:48:13;9.60;99.90
2497;DHT22;1259;48.306;14.374;2023-04-25T06:50:40;9.70;99.90
2497;DHT22;1259;48.306;14.374;2023-04-25T06:53:07;9.70;99.90
2497;DHT22;1259;48.306;14.374;2023-04-25T06:55:36;9.70;99.90
2497;DHT22;1259;48.306;14.374;2023-04-25T06:58:03;9.90;99.90
2497;DHT22;1259;48.306;14.374;2023-04-25T07:00:30;9.90;99.90
2497;DHT22;1259;48.306;14.374;2023-04-25T07:02:57;10.00;99.90
2497;DHT22;1259;48.306;14.374;2023-04-25T07:05:25;10.10;99.90
2497;DHT22;1259;48.306;14.374;2023-04-25T07:07:52;10.10;99.90
2497;DHT22;1259;48.306;14.374;2023-04-25T07:10:19;10.20;99.90
2497;DHT22;1259;48.306;14.374;2023-04-25T07:12:48;10.20;99.90
2497;DHT22;1259;48.306;14.374;2023-04-25T07:15:15;10.30;99.90
2497;DHT22;1259;48.306;14.374;2023-04-25T07:17:42;10.50;99.90
2497;DHT22;1259;48.306;14.374;2023-04-25T07:20:08;10.50;99.90
2497;DHT22;1259;48.306;14.374;2023-04-25T07:22:37;10.70;99.90
2497;DHT22;1259;48.306;14.374;2023-04-25T07:25:04;10.70;99.90
2497;DHT22;1259;48.306;14.374;2023-04-25T07:27:30;10.80;99.90
2497;DHT22;1259;48.306;14.374;2023-04-25T07:29:57;10.70;99.90
2497;DHT22;1259;48.306;14.374;2023-04-25T07:32:24;11.00;99.90
2497;DHT22;1259;48.306;14.374;2023-04-25T07:34:51;10.90;99.90
2497;DHT22;1259;48.306;14.374;2023-04-25T07:37:18;10.80;99.90
2497;DHT22;1259;48.306;14.374;2023-04-25T07:39:46;10.90;99.90
2497;DHT22;1259;48.306;14.374;2023-04-25T07:42:13;11.10;99.90
2497;DHT22;1259;48.306;14.374;2023-04-25T07:44:40;11.20;99.90
2497;DHT22;1259;48.306;14.374;2023-04-25T07:47:08;11.20;99.90
2497;DHT22;1259;48.306;14.374;2023-04-25T07:49:34;11.20;99.90
2497;DHT22;1259;48.306;14.374;2023-04-25T07:52:02;11.10;99.90
2497;DHT22;1259;48.306;14.374;2023-04-25T07:54:28;11.20;99.90
2497;DHT22;1259;48.306;14.374;2023-04-25T07:56:56;11.30;99.90
2497;DHT22;1259;48.306;14.374;2023-04-25T07:59:23;11.40;99.90
2497;DHT22;1259;48.306;14.374;2023-04-25T08:01:50;11.20;99.90
2497;DHT22;1259;48.306;14.374;2023-04-25T08:04:17;11.20;99.90
2497;DHT22;1259;48.306;14.374;2023-04-25T08:06:43;11.10;99.90
2497;DHT22;1259;48.306;14.374;2023-04-25T08:09:10;11.10;99.90
2497;DHT22;1259;48.306;14.374;2023-04-25T08:11:37;11.10;99.90
2497;DHT22;1259;48.306;14.374;2023-04-25T08:14:06;11.10;99.90
2497;DHT22;1259;48.306;14.374;2023-04-25T08:16:32;11.40;99.90
2497;DHT22;1259;48.306;14.374;2023-04-25T08:18:59;11.70;99.90
2497;DHT22;1259;48.306;14.374;2023-04-25T08:21:26;11.90;99.90
2497;DHT22;1259;48.306;14.374;2023-04-25T08:23:53;12.20;99.90
2497;DHT22;1259;48.306;14.374;2023-04-25T08:26:20;12.40;99.90
2497;DHT22;1259;48.306;14.374;2023-04-25T08:28:46;12.30;99.90
2497;DHT22;1259;48.306;14.374;2023-04-25T08:31:14;12.20;99.90
2497;DHT22;1259;48.306;14.374;2023-04-25T08:33:41;12.50;99.90
2497;DHT22;1259;48.306;14.374;2023-04-25T08:36:08;12.50;99.90
2497;DHT22;1259;48.306;14.374;2023-04-25T08:38:34;12.50;99.90
2497;DHT22;1259;48.306;14.374;2023-04-25T08:41:02;12.60;99.90
2497;DHT22;1259;48.306;14.374;2023-04-25T08:43:29;12.60;99.90
2497;DHT22;1259;48.306;14.374;2023-04-25T08:45:57;12.70;99.90
2497;DHT22;1259;48.306;14.374;2023-04-25T08:48:26;12.90;99.90
2497;DHT22;1259;48.306;14.374;2023-04-25T08:50:54;13.10;99.90
2497;DHT22;1259;48.306;14.374;2023-04-25T08:53:22;13.20;99.90
2497;DHT22;1259;48.306;14.374;2023-04-25T08:55:49;13.00;99.90
2497;DHT22;1259;48.306;14.374;2023-04-25T08:58:16;12.90;99.90
2497;DHT22;1259;48.306;14.374;2023-04-25T09:00:45;12.90;99.90
2497;DHT22;1259;48.306;14.374;2023-04-25T09:03:12;12.80;99.90
2497;DHT22;1259;48.306;14.374;2023-04-25T09:05:40;12.50;99.90
2497;DHT22;1259;48.306;14.374;2023-04-25T09:08:07;12.20;99.90
2497;DHT22;1259;48.306;14.374;2023-04-25T09:10:34;12.10;99.90
2497;DHT22;1259;48.306;14.374;2023-04-25T09:13:02;11.90;99.90
2497;DHT22;1259;48.306;14.374;2023-04-25T09:15:29;11.70;99.90
2497;DHT22;1259;48.306;14.374;2023-04-25T09:17:56;11.70;99.90
2497;DHT22;1259;48.306;14.374;2023-04-25T09:20:22;11.70;99.90
2497;DHT22;1259;48.306;14.374;2023-04-25T09:23:00;11.80;99.90
2497;DHT22;1259;48.306;14.374;2023-04-25T09:25:27;11.90;99.90
2497;DHT22;1259;48.306;14.374;2023-04-25T09:28:00;12.10;99.90
2497;DHT22;1259;48.306;14.374;2023-04-25T09:30:30;12.50;99.90
2497;DHT22;1259;48.306;14.374;2023-04-25T09:32:57;12.50;99.90
2497;DHT22;1259;48.306;14.374;2023-04-25T09:35:24;12.80;99.90
2497;DHT22;1259;48.306;14.374;2023-04-25T09:37:51;13.00;99.90
2497;DHT22;1259;48.306;14.374;2023-04-25T09:40:19;12.70;98.40
2497;DHT22;1259;48.306;14.374;2023-04-25T09:42:46;12.80;99.70
2497;DHT22;1259;48.306;14.374;2023-04-25T09:45:13;12.70;99.20
2497;DHT22;1259;48.306;14.374;2023-04-25T09:47:40;12.80;99.70
2497;DHT22;1259;48.306;14.374;2023-04-25T09:50:13;12.80;97.60
2497;DHT22;1259;48.306;14.374;2023-04-25T09:52:40;13.30;98.70
2497;DHT22;1259;48.306;14.374;2023-04-25T09:55:07;13.60;99.30
2497;DHT22;1259;48.306;14.374;2023-04-25T09:57:35;13.50;95.70
2497;DHT22;1259;48.306;14.374;2023-04-25T10:00:05;13.70;96.80
2497;DHT22;1259;48.306;14.374;2023-04-25T10:02:37;13.80;95.10
2497;DHT22;1259;48.306;14.374;2023-04-25T10:05:05;13.80;93.40
2497;DHT22;1259;48.306;14.374;2023-04-25T10:07:33;13.60;93.80
2497;DHT22;1259;48.306;14.374;2023-04-25T10:10:00;13.50;93.40
2497;DHT22;1259;48.306;14.374;2023-04-25T10:12:28;13.70;93.70
2497;DHT22;1259;48.306;14.374;2023-04-25T10:14:57;13.90;94.90
2497;DHT22;1259;48.306;14.374;2023-04-25T10:17:25;13.80;91.40
2497;DHT22;1259;48.306;14.374;2023-04-25T10:19:52;13.60;91.90
2497;DHT22;1259;48.306;14.374;2023-04-25T10:22:20;13.40;92.40
2497;DHT22;1259;48.306;14.374;2023-04-25T10:24:49;13.40;92.70
2497;DHT22;1259;48.306;14.374;2023-04-25T10:27:17;13.30;93.00
2497;DHT22;1259;48.306;14.374;2023-04-25T10:29:44;13.20;92.90
2497;DHT22;1259;48.306;14.374;2023-04-25T10:32:12;13.30;94.60
2497;DHT22;1259;48.306;14.374;2023-04-25T10:34:40;13.40;93.80
2497;DHT22;1259;48.306;14.374;2023-04-25T10:37:10;13.70;94.20
2497;DHT22;1259;48.306;14.374;2023-04-25T10:39:38;14.00;94.40
2497;DHT22;1259;48.306;14.374;2023-04-25T10:42:04;14.30;94.60
2497;DHT22;1259;48.306;14.374;2023-04-25T10:44:33;14.20;93.00
2497;DHT22;1259;48.306;14.374;2023-04-25T10:47:00;14.20;92.50
2497;DHT22;1259;48.306;14.374;2023-04-25T10:49:30;14.00;88.40
2497;DHT22;1259;48.306;14.374;2023-04-25T10:52:13;14.20;91.10
2497;DHT22;1259;48.306;14.374;2023-04-25T10:54:41;14.00;88.80
2497;DHT22;1259;48.306;14.374;2023-04-25T10:57:18;14.00;88.80
2497;DHT22;1259;48.306;14.374;2023-04-25T10:59:52;13.90;86.80
2497;DHT22;1259;48.306;14.374;2023-04-25T11:02:19;14.20;89.20
2497;DHT22;1259;48.306;14.374;2023-04-25T11:04:47;14.50;90.10
2497;DHT22;1259;48.306;14.374;2023-04-25T11:07:16;14.30;88.10
2497;DHT22;1259;48.306;14.374;2023-04-25T11:09:48;14.30;87.60
2497;DHT22;1259;48.306;14.374;2023-04-25T11:12:15;13.80;89.20
2497;DHT22;1259;48.306;14.374;2023-04-25T11:14:42;13.70;90.00
2497;DHT22;1259;48.306;14.374;2023-04-25T11:17:09;13.60;91.00
2497;DHT22;1259;48.306;14.374;2023-04-25T11:19:36;12.80;90.50
2497;DHT22;1259;48.306;14.374;2023-04-25T11:22:04;12.20;90.80
2497;DHT22;1259;48.306;14.374;2023-04-25T11:24:32;11.70;92.20
2497;DHT22;1259;48.306;14.374;2023-04-25T11:26:59;11.40;94.10
2497;DHT22;1259;48.306;14.374;2023-04-25T11:29:27;11.20;94.40
2497;DHT22;1259;48.306;14.374;2023-04-25T11:31:54;11.10;95.60
2497;DHT22;1259;48.306;14.374;2023-04-25T11:34:23;11.00;96.30
2497;DHT22;1259;48.306;14.374;2023-04-25T11:36:50;11.10;96.90
2497;DHT22;1259;48.306;14.374;2023-04-25T11:39:19;10.90;96.10
2497;DHT22;1259;48.306;14.374;2023-04-25T11:41:46;10.90;97.90
2497;DHT22;1259;48.306;14.374;2023-04-25T11:44:14;11.10;99.90
2497;DHT22;1259;48.306;14.374;2023-04-25T11:46:41;11.00;99.90
2497;DHT22;1259;48.306;14.374;2023-04-25T11:49:08;11.10;99.90
2497;DHT22;1259;48.306;14.374;2023-04-25T11:51:37;11.30;99.90
2497;DHT22;1259;48.306;14.374;2023-04-25T11:54:04;11.60;99.90
2497;DHT22;1259;48.306;14.374;2023-04-25T11:56:32;11.90;98.60
2497;DHT22;1259;48.306;14.374;2023-04-25T11:59:00;12.30;96.90
2497;DHT22;1259;48.306;14.374;2023-04-25T12:01:27;12.50;96.80
2497;DHT22;1259;48.306;14.374;2023-04-25T12:03:55;12.30;95.70
2497;DHT22;1259;48.306;14.374;2023-04-25T12:06:25;12.60;95.50
2497;DHT22;1259;48.306;14.374;2023-04-25T12:08:59;12.50;94.40
2497;DHT22;1259;48.306;14.374;2023-04-25T12:11:25;12.60;94.40
2497;DHT22;1259;48.306;14.374;2023-04-25T12:13:53;12.60;94.30
2497;DHT22;1259;48.306;14.374;2023-04-25T12:16:20;12.70;94.30
2497;DHT22;1259;48.306;14.374;2023-04-25T12:18:47;12.60;93.30
2497;DHT22;1259;48.306;14.374;2023-04-25T12:21:14;12.50;93.70
2497;DHT22;1259;48.306;14.374;2023-04-25T12:23:40;12.50;93.70
2497;DHT22;1259;48.306;14.374;2023-04-25T12:26:07;12.70;93.50
2497;DHT22;1259;48.306;14.374;2023-04-25T12:28:34;12.60;92.60
2497;DHT22;1259;48.306;14.374;2023-04-25T12:31:02;12.70;92.60
2497;DHT22;1259;48.306;14.374;2023-04-25T12:33:29;12.80;94.00
2497;DHT22;1259;48.306;14.374;2023-04-25T12:35:56;12.90;93.10
2497;DHT22;1259;48.306;14.374;2023-04-25T12:38:24;12.70;92.20
2497;DHT22;1259;48.306;14.374;2023-04-25T12:40:51;12.60;93.10
2497;DHT22;1259;48.306;14.374;2023-04-25T12:43:17;12.60;92.60
2497;DHT22;1259;48.306;14.374;2023-04-25T12:45:44;12.70;92.90
2497;DHT22;1259;48.306;14.374;2023-04-25T12:48:12;12.70;93.00
2497;DHT22;1259;48.306;14.374;2023-04-25T12:50:39;12.50;92.80
2497;DHT22;1259;48.306;14.374;2023-04-25T12:53:06;12.20;93.90
2497;DHT22;1259;48.306;14.374;2023-04-25T12:55:33;10.70;98.80
2497;DHT22;1259;48.306;14.374;2023-04-25T12:58:00;9.70;99.90
2497;DHT22;1259;48.306;14.374;2023-04-25T13:00:28;9.20;99.90
2497;DHT22;1259;48.306;14.374;2023-04-25T13:02:55;8.80;99.90
2497;DHT22;1259;48.306;14.374;2023-04-25T13:05:23;8.60;99.90
2497;DHT22;1259;48.306;14.374;2023-04-25T13:07:49;8.60;99.90
2497;DHT22;1259;48.306;14.374;2023-04-25T13:10:16;8.50;99.90
2497;DHT22;1259;48.306;14.374;2023-04-25T13:12:43;8.60;99.90
2497;DHT22;1259;48.306;14.374;2023-04-25T13:15:10;8.50;99.90
2497;DHT22;1259;48.306;14.374;2023-04-25T13:17:37;8.40;99.90
2497;DHT22;1259;48.306;14.374;2023-04-25T13:20:05;8.50;99.90
2497;DHT22;1259;48.306;14.374;2023-04-25T13:22:35;8.80;99.90
2497;DHT22;1259;48.306;14.374;2023-04-25T13:25:03;9.00;99.90
2497;DHT22;1259;48.306;14.374;2023-04-25T13:27:30;9.20;99.90
2497;DHT22;1259;48.306;14.374;2023-04-25T13:29:57;9.40;99.90
2497;DHT22;1259;48.306;14.374;2023-04-25T13:32:24;9.50;99.90
2497;DHT22;1259;48.306;14.374;2023-04-25T13:34:51;9.70;99.90
2497;DHT22;1259;48.306;14.374;2023-04-25T13:37:18;9.80;99.90
2497;DHT22;1259;48.306;14.374;2023-04-25T13:39:46;9.80;99.90
2497;DHT22;1259;48.306;14.374;2023-04-25T13:42:12;9.90;99.90
2497;DHT22;1259;48.306;14.374;2023-04-25T13:44:40;10.10;99.90
2497;DHT22;1259;48.306;14.374;2023-04-25T13:47:06;10.10;99.90
2497;DHT22;1259;48.306;14.374;2023-04-25T13:49:33;10.20;99.90
2497;DHT22;1259;48.306;14.374;2023-04-25T13:52:00;10.30;99.90
2497;DHT22;1259;48.306;14.374;2023-04-25T13:54:26;10.30;99.90
2497;DHT22;1259;48.306;14.374;2023-04-25T13:56:54;10.40;99.90
2497;DHT22;1259;48.306;14.374;2023-04-25T13:59:24;10.30;99.90
2497;DHT22;1259;48.306;14.374;2023-04-25T14:01:50;10.50;99.90
2497;DHT22;1259;48.306;14.374;2023-04-25T14:04:17;10.60;99.90
2497;DHT22;1259;48.306;14.374;2023-04-25T14:06:44;10.60;99.90
2497;DHT22;1259;48.306;14.374;2023-04-25T14:09:11;10.70;99.90
2497;DHT22;1259;48.306;14.374;2023-04-25T14:11:38;10.80;99.90
2497;DHT22;1259;48.306;14.374;2023-04-25T14:14:06;10.70;99.90
2497;DHT22;1259;48.306;14.374;2023-04-25T14:16:33;10.70;99.90
2497;DHT22;1259;48.306;14.374;2023-04-25T14:19:00;10.80;99.90
2497;DHT22;1259;48.306;14.374;2023-04-25T14:21:27;10.90;99.90
2497;DHT22;1259;48.306;14.374;2023-04-25T14:23:53;10.70;99.90
2497;DHT22;1259;48.306;14.374;2023-04-25T14:26:20;10.60;99.90
2497;DHT22;1259;48.306;14.374;2023-04-25T14:28:47;10.40;99.90
2497;DHT22;1259;48.306;14.374;2023-04-25T14:31:15;10.50;99.90
2497;DHT22;1259;48.306;14.374;2023-04-25T14:33:41;10.70;99.90
2497;DHT22;1259;48.306;14.374;2023-04-25T14:36:08;10.90;99.90
2497;DHT22;1259;48.306;14.374;2023-04-25T14:38:35;11.00;99.90
2497;DHT22;1259;48.306;14.374;2023-04-25T14:41:02;10.90;99.90
2497;DHT22;1259;48.306;14.374;2023-04-25T14:43:28;10.90;99.90
2497;DHT22;1259;48.306;14.374;2023-04-25T14:45:55;10.80;99.90
2497;DHT22;1259;48.306;14.374;2023-04-25T14:48:23;10.70;99.90
2497;DHT22;1259;48.306;14.374;2023-04-25T14:50:50;10.60;99.90
2497;DHT22;1259;48.306;14.374;2023-04-25T14:53:17;10.60;99.90
2497;DHT22;1259;48.306;14.374;2023-04-25T14:55:43;10.70;99.90
2497;DHT22;1259;48.306;14.374;2023-04-25T14:58:10;10.70;99.90
2497;DHT22;1259;48.306;14.374;2023-04-25T15:00:37;10.70;99.90
2497;DHT22;1259;48.306;14.374;2023-04-25T15:03:04;10.70;99.90
2497;DHT22;1259;48.306;14.374;2023-04-25T15:05:32;10.60;99.90
2497;DHT22;1259;48.306;14.374;2023-04-25T15:07:59;10.60;99.90
2497;DHT22;1259;48.306;14.374;2023-04-25T15:10:26;10.60;99.90
2497;DHT22;1259;48.306;14.374;2023-04-25T15:12:53;10.60;99.90
2497;DHT22;1259;48.306;14.374;2023-04-25T15:15:20;10.80;99.90
2497;DHT22;1259;48.306;14.374;2023-04-25T15:17:48;10.90;99.90
2497;DHT22;1259;48.306;14.374;2023-04-25T15:20:15;10.80;99.90
2497;DHT22;1259;48.306;14.374;2023-04-25T15:22:44;10.70;99.90
2497;DHT22;1259;48.306;14.374;2023-04-25T15:25:11;10.60;99.90
2497;DHT22;1259;48.306;14.374;2023-04-25T15:27:38;10.80;99.90
2497;DHT22;1259;48.306;14.374;2023-04-25T15:30:07;10.70;99.90
2497;DHT22;1259;48.306;14.374;2023-04-25T15:32:36;10.90;99.90
2497;DHT22;1259;48.306;14.374;2023-04-25T15:35:03;11.00;99.90
2497;DHT22;1259;48.306;14.374;2023-04-25T15:37:30;11.20;99.90
2497;DHT22;1259;48.306;14.374;2023-04-25T15:40:00;11.10;99.90
2497;DHT22;1259;48.306;14.374;2023-04-25T15:42:30;10.90;99.90
2497;DHT22;1259;48.306;14.374;2023-04-25T15:44:57;10.90;99.90
2497;DHT22;1259;48.306;14.374;2023-04-25T15:47:23;10.80;99.90
2497;DHT22;1259;48.306;14.374;2023-04-25T15:49:50;10.90;99.90
2497;DHT22;1259;48.306;14.374;2023-04-25T15:52:17;11.00;99.90
2497;DHT22;1259;48.306;14.374;2023-04-25T15:54:46;11.10;99.90